Time;durP1;ratioP1;P1;durP2;ratioP2;P2;SDS_P1;SDS_P2;PMS_P1;PMS_P2;Temp;Humidity;BMP_temperature;BMP_pressure;BME280_temperature;BME280_humidity;BME280_pressure;Samples;Min_cycle;Max_cycle;Signal;HPM_P1;HPM_P2
2023/01/22 00:02:35;;;;;;;9.80;5.33;;;1.40;80.20;;;;;;10478224;28;20287;-78
2023/01/22 00:07:56;;;;;;;11.00;5.20;;;1.30;87.50;;;;;;10477662;28;20235;-78
2023/01/22 00:13:18;;;;;;;10.10;5.90;;;1.30;89.10;;;;;;10478419;28;20199;-76
2023/01/22 00:18:39;;;;;;;9.00;4.80;;;1.40;95.20;;;;;;10477583;28;20240;-75
2023/01/22 00:24:01;;;;;;;15.07;5.97;;;1.40;88.80;;;;;;10457521;28;20228;-76
2023/01/22 00:29:22;;;;;;;9.73;5.50;;;1.30;86.40;;;;;;10436910;28;20191;-76
2023/01/22 00:34:49;;;;;;;10.20;6.03;;;1.40;85.80;;;;;;10487962;28;20205;-74
2023/01/22 00:40:11;;;;;;;13.37;5.60;;;1.40;88.90;;;;;;10449643;28;20408;-77
2023/01/22 00:45:33;;;;;;;25.40;9.37;;;1.30;90.00;;;;;;10492029;28;20237;-75
2023/01/22 00:50:54;;;;;;;15.97;6.40;;;1.30;97.40;;;;;;10485774;28;20486;-77
2023/01/22 00:56:15;;;;;;;15.27;6.40;;;1.30;96.00;;;;;;10484415;28;20307;-78
2023/01/22 01:01:37;;;;;;;11.53;5.83;;;1.30;93.90;;;;;;10483873;28;20202;-75
2023/01/22 01:06:58;;;;;;;12.80;6.37;;;1.30;96.10;;;;;;10470406;28;20195;-75
2023/01/22 01:12:19;;;;;;;9.03;4.90;;;1.30;88.90;;;;;;10485116;28;20195;-76
2023/01/22 01:17:40;;;;;;;9.67;5.40;;;1.30;85.50;;;;;;10482942;28;20218;-78
2023/01/22 01:23:01;;;;;;;11.90;6.03;;;1.20;99.90;;;;;;10485055;28;20260;-80
2023/01/22 01:28:23;;;;;;;7.13;4.93;;;1.20;95.50;;;;;;10479823;28;20283;-79
2023/01/22 01:33:45;;;;;;;9.23;5.30;;;1.20;97.30;;;;;;10442203;28;20238;-78
2023/01/22 01:39:06;;;;;;;8.53;4.90;;;1.30;95.00;;;;;;10470234;28;20219;-79
2023/01/22 01:44:30;;;;;;;8.07;5.23;;;1.30;94.90;;;;;;10481753;28;20245;-79
2023/01/22 01:49:52;;;;;;;6.30;4.80;;;1.30;96.80;;;;;;10483112;28;20267;-79
2023/01/22 01:55:18;;;;;;;9.27;5.30;;;1.30;98.40;;;;;;10468241;28;20406;-79
2023/01/22 02:00:42;;;;;;;7.73;5.57;;;1.30;99.90;;;;;;10480864;28;20264;-77
2023/01/22 02:06:03;;;;;;;7.37;4.83;;;1.30;99.80;;;;;;10482263;28;20223;-78
2023/01/22 02:11:26;;;;;;;6.70;4.80;;;1.30;98.40;;;;;;10482069;28;20194;-79
2023/01/22 02:16:47;;;;;;;5.63;4.27;;;1.30;86.80;;;;;;10480042;28;20204;-77
2023/01/22 02:22:21;;;;;;;7.43;5.40;;;1.30;80.70;;;;;;10442810;28;20223;-78
2023/01/22 02:27:43;;;;;;;9.57;6.20;;;1.30;97.10;;;;;;10439887;28;20421;-79
2023/01/22 02:33:04;;;;;;;11.10;6.93;;;1.30;91.20;;;;;;10436354;28;20209;-79
2023/01/22 02:38:25;;;;;;;11.87;7.03;;;1.30;93.40;;;;;;10462496;28;20201;-76
2023/01/22 02:43:46;;;;;;;11.47;7.63;;;1.40;92.70;;;;;;10460957;28;20466;-77
2023/01/22 02:49:09;;;;;;;8.50;6.43;;;1.40;93.20;;;;;;10481569;28;20271;-78
2023/01/22 02:54:30;;;;;;;8.37;6.40;;;1.40;81.00;;;;;;10479513;28;20243;-78
2023/01/22 02:59:51;;;;;;;9.37;6.93;;;1.40;89.30;;;;;;10480870;28;20206;-78
2023/01/22 03:05:12;;;;;;;7.13;5.77;;;1.40;76.40;;;;;;10466072;28;20215;-77
2023/01/22 03:10:34;;;;;;;14.13;8.60;;;1.40;78.70;;;;;;10476059;28;20202;-77
2023/01/22 03:21:35;;;;;;;16.10;8.10;;;1.30;96.90;;;;;;10479178;28;20188;-77
2023/01/22 03:26:56;;;;;;;11.10;7.17;;;1.30;96.40;;;;;;10475796;28;20199;-77
2023/01/22 03:32:18;;;;;;;9.40;6.70;;;1.40;83.40;;;;;;10478902;28;20489;-80
2023/01/22 03:37:39;;;;;;;12.57;8.23;;;1.30;94.00;;;;;;10452824;28;20432;-77
2023/01/22 03:43:00;;;;;;;9.83;7.27;;;1.30;93.40;;;;;;10478124;28;20218;-80
2023/01/22 03:48:22;;;;;;;9.43;6.87;;;1.30;94.20;;;;;;10479136;28;20191;-81
2023/01/22 03:53:44;;;;;;;9.77;6.90;;;1.20;99.90;;;;;;10476755;28;20282;-79
2023/01/22 03:59:06;;;;;;;8.40;6.03;;;1.20;99.90;;;;;;10464219;28;20375;-80
2023/01/22 04:04:27;;;;;;;8.47;5.60;;;1.20;92.60;;;;;;10477620;28;20588;-78
2023/01/22 04:09:49;;;;;;;7.20;5.70;;;1.20;99.90;;;;;;10476492;28;20203;-80
2023/01/22 04:15:10;;;;;;;8.03;5.90;;;1.20;99.90;;;;;;10463852;28;20187;-79
2023/01/22 04:20:31;;;;;;;9.00;6.90;;;1.20;99.90;;;;;;10476915;28;20190;-80
2023/01/22 04:26:10;;;;;;;12.17;7.23;;;1.20;99.90;;;;;;10476124;28;20333;-76
2023/01/22 04:31:31;;;;;;;13.07;8.53;;;1.10;99.90;;;;;;10477278;28;20319;-77
2023/01/22 04:37:11;;;;;;;10.73;7.47;;;1.10;99.90;;;;;;10476842;28;20324;-78
2023/01/22 04:42:32;;;;;;;11.87;7.37;;;1.10;99.90;;;;;;10476825;28;20212;-78
2023/01/22 04:47:54;;;;;;;12.27;8.83;;;1.20;99.90;;;;;;10460223;28;20206;-79
2023/01/22 04:53:16;;;;;;;11.80;7.93;;;1.10;99.90;;;;;;10476123;28;20211;-77
2023/01/22 04:58:38;;;;;;;12.80;9.87;;;1.20;99.90;;;;;;10476701;28;20550;-77
2023/01/22 05:04:01;;;;;;;16.90;11.87;;;1.10;99.90;;;;;;10475526;28;20224;-77
2023/01/22 05:09:25;;;;;;;33.07;17.30;;;1.10;99.90;;;;;;10446959;28;20191;-76
2023/01/22 05:14:51;;;;;;;38.30;17.33;;;1.10;99.90;;;;;;10476238;28;20381;-77
2023/01/22 05:20:12;;;;;;;52.37;21.30;;;1.10;99.90;;;;;;10465695;28;20494;-77
2023/01/22 05:25:33;;;;;;;37.00;17.37;;;1.10;99.90;;;;;;10434571;28;20281;-74
2023/01/22 05:30:56;;;;;;;30.60;16.40;;;1.10;99.90;;;;;;10434619;28;20192;-77
2023/01/22 05:36:25;;;;;;;32.97;14.60;;;1.10;99.90;;;;;;10472658;28;20202;-76
2023/01/22 05:41:51;;;;;;;25.07;13.50;;;1.10;99.90;;;;;;10483319;28;20194;-75
2023/01/22 05:47:13;;;;;;;14.73;10.20;;;1.10;99.90;;;;;;10468539;28;20221;-75
2023/01/22 05:52:54;;;;;;;16.63;11.70;;;1.10;99.90;;;;;;10481379;28;20211;-76
2023/01/22 05:58:15;;;;;;;16.00;10.70;;;1.00;99.90;;;;;;10482278;28;20548;-76
2023/01/22 06:03:39;;;;;;;17.73;10.97;;;0.90;99.90;;;;;;10482032;28;20294;-77
2023/01/22 06:09:01;;;;;;;16.53;10.93;;;1.00;99.90;;;;;;10482000;28;20217;-76
2023/01/22 06:14:28;;;;;;;17.90;11.20;;;1.00;99.90;;;;;;10454232;28;20209;-75
2023/01/22 06:19:51;;;;;;;16.70;11.50;;;0.90;99.90;;;;;;10466922;28;20205;-79
2023/01/22 06:25:12;;;;;;;18.73;13.10;;;0.80;99.90;;;;;;10479468;28;20223;-76
2023/01/22 06:30:54;;;;;;;25.40;16.83;;;0.80;99.90;;;;;;10482943;28;20218;-75
2023/01/22 06:36:15;;;;;;;49.13;24.40;;;0.90;99.90;;;;;;10480612;28;20242;-76
2023/01/22 06:41:37;;;;;;;37.90;23.10;;;0.80;99.90;;;;;;10494942;28;20188;-76
2023/01/22 06:47:01;;;;;;;52.07;31.80;;;0.80;99.90;;;;;;10480354;28;20237;-77
2023/01/22 06:52:23;;;;;;;44.33;20.97;;;0.80;99.90;;;;;;10480124;28;20493;-76
2023/01/22 06:57:45;;;;;;;25.03;15.60;;;0.80;99.90;;;;;;10479096;28;20487;-76
2023/01/22 07:03:07;;;;;;;50.17;18.97;;;0.90;99.90;;;;;;10479981;28;20214;-76
2023/01/22 07:08:30;;;;;;;47.47;28.83;;;0.80;99.10;;;;;;10479429;28;20202;-77
2023/01/22 07:13:51;;;;;;;25.80;15.97;;;0.70;98.00;;;;;;10478580;28;20225;-76
2023/01/22 07:19:12;;;;;;;33.80;17.07;;;0.70;99.90;;;;;;10480223;28;20580;-78
2023/01/22 07:24:33;;;;;;;59.43;29.43;;;0.80;99.90;;;;;;10478833;28;20233;-79
2023/01/22 07:29:54;;;;;;;91.57;34.00;;;0.70;99.90;;;;;;10472878;28;20194;-77
2023/01/22 07:35:15;;;;;;;65.30;25.53;;;0.70;99.90;;;;;;10457368;28;20199;-76
2023/01/22 07:40:36;;;;;;;56.90;24.50;;;0.80;99.90;;;;;;10477995;28;20304;-79
2023/01/22 07:46:00;;;;;;;50.50;19.67;;;0.80;94.40;;;;;;10477920;28;20305;-80
2023/01/22 07:51:21;;;;;;;51.43;22.30;;;0.80;93.80;;;;;;10478029;28;20225;-79
2023/01/22 07:56:42;;;;;;;43.37;21.07;;;0.90;76.40;;;;;;10477890;28;20235;-78
2023/01/22 08:02:03;;;;;;;38.67;15.50;;;0.90;72.70;;;;;;10477348;28;20207;-78
2023/01/22 08:07:24;;;;;;;36.13;14.90;;;1.00;64.30;;;;;;10478892;28;20515;-77
2023/01/22 08:12:47;;;;;;;28.93;13.70;;;1.00;51.00;;;;;;10478506;28;20200;-78
2023/01/22 08:18:10;;;;;;;13.37;9.03;;;0.90;43.00;;;;;;10444058;28;20223;-76
2023/01/22 08:23:31;;;;;;;17.87;11.20;;;0.90;31.70;;;;;;10436880;28;20215;-78
2023/01/22 08:28:52;;;;;;;25.10;13.63;;;0.80;41.80;;;;;;10439040;28;20194;-75
2023/01/22 08:34:13;;;;;;;35.50;17.37;;;0.90;42.40;;;;;;10449109;28;20500;-76
2023/01/22 08:39:34;;;;;;;33.83;20.73;;;0.90;35.60;;;;;;10467906;28;20201;-76
2023/01/22 08:44:55;;;;;;;44.27;29.90;;;0.90;51.70;;;;;;10475140;28;20589;-78
2023/01/22 08:50:17;;;;;;;51.13;36.07;;;0.90;61.30;;;;;;10476765;28;20198;-76
2023/01/22 08:55:38;;;;;;;23.47;16.23;;;0.90;63.00;;;;;;10477675;28;20238;-77
2023/01/22 09:00:59;;;;;;;40.70;19.50;;;1.00;49.70;;;;;;10473665;28;20269;-76
2023/01/22 09:06:21;;;;;;;33.50;17.40;;;1.00;50.90;;;;;;10478961;28;20264;-77
2023/01/22 09:11:43;;;;;;;29.17;16.57;;;1.10;50.90;;;;;;10485458;28;20234;-79
2023/01/22 09:17:05;;;;;;;26.93;15.53;;;1.10;32.90;;;;;;10471327;28;20207;-77
2023/01/22 09:22:26;;;;;;;25.17;16.60;;;1.10;28.30;;;;;;10469471;28;20282;-76
2023/01/22 09:27:47;;;;;;;33.40;18.50;;;1.00;35.30;;;;;;10455634;28;20420;-78
2023/01/22 09:33:08;;;;;;;25.00;14.70;;;1.00;45.90;;;;;;10479813;28;20293;-77
2023/01/22 09:38:29;;;;;;;27.27;14.10;;;1.00;37.60;;;;;;10477666;28;20206;-78
2023/01/22 09:44:00;;;;;;;25.30;14.03;;;1.00;25.30;;;;;;10482900;28;20302;-80
2023/01/22 09:49:31;;;;;;;15.53;9.80;;;1.00;24.40;;;;;;10481878;28;20359;-77
2023/01/22 09:54:52;;;;;;;29.97;14.90;;;1.00;9.80;;;;;;10441302;28;20231;-80
2023/01/22 10:00:46;;;;;;;16.30;10.67;;;1.00;18.90;;;;;;10441090;28;20195;-79
2023/01/22 10:06:07;;;;;;;18.07;12.37;;;1.00;1.90;;;;;;10456789;28;20230;-80
2023/01/22 10:11:28;;;;;;;18.33;11.03;;;1.10;9.30;;;;;;10483172;28;20202;-80
2023/01/22 10:16:49;;;;;;;20.63;12.77;;;1.10;5.10;;;;;;10482066;28;20197;-80
2023/01/22 10:22:17;;;;;;;26.40;17.23;;;1.10;2.90;;;;;;10480543;28;20535;-79
2023/01/22 10:27:38;;;;;;;34.47;18.70;;;1.10;1.00;;;;;;10481668;28;20547;-80
2023/01/22 10:33:06;;;;;;;30.60;18.23;;;1.20;7.10;;;;;;10477629;28;20207;-79
2023/01/22 10:38:29;;;;;;;30.23;15.50;;;1.20;2.10;;;;;;10460513;28;20233;-79
2023/01/22 10:43:50;;;;;;;29.33;16.27;;;1.30;1.00;;;;;;10469515;28;20551;-78
2023/01/22 10:49:20;;;;;;;31.13;19.17;;;1.20;6.60;;;;;;10480394;28;20229;-77
2023/01/22 10:54:42;;;;;;;20.27;14.07;;;1.30;1.00;;;;;;10481286;28;20241;-79
2023/01/22 11:00:13;;;;;;;25.60;12.83;;;1.30;1.00;;;;;;10479790;28;20370;-77
2023/01/22 11:05:35;;;;;;;48.53;21.83;;;1.30;1.00;;;;;;10480568;28;20219;-78
2023/01/22 11:11:07;;;;;;;36.27;19.33;;;1.20;1.00;;;;;;10478204;28;20208;-78
2023/01/22 11:16:34;;;;;;;33.03;16.63;;;1.30;1.00;;;;;;10480688;28;20373;-79
2023/01/22 11:21:57;;;;;;;80.67;28.40;;;1.30;1.00;;;;;;10480431;28;20196;-78
2023/01/22 11:28:03;;;;;;;73.93;23.80;;;1.40;1.00;;;;;;10477692;28;20227;-78
2023/01/22 11:33:44;;;;;;;37.50;20.60;;;1.40;1.00;;;;;;10479806;28;20196;-79
2023/01/22 11:39:58;;;;;;;94.10;38.23;;;1.40;1.00;;;;;;10479657;28;20216;-78
2023/01/22 11:45:58;;;;;;;44.57;20.50;;;1.50;1.00;;;;;;10545269;28;20336;-78
2023/01/22 11:51:24;;;;;;;48.33;19.73;;;1.50;1.00;;;;;;10558994;28;20238;-78
2023/01/22 11:57:11;;;;;;;68.07;31.00;;;1.50;1.00;;;;;;10524330;28;20268;-79
2023/01/22 12:02:59;;;;;;;27.43;16.13;;;1.40;1.00;;;;;;10517041;28;20195;-77
2023/01/22 12:08:31;;;;;;;49.07;24.73;;;1.40;1.00;;;;;;10504744;28;20390;-77
2023/01/22 12:14:13;;;;;;;73.67;25.87;;;1.40;1.00;;;;;;10520573;28;20261;-78
2023/01/22 12:19:46;;;;;;;44.73;20.93;;;1.40;1.00;;;;;;10473531;28;20224;-78
2023/01/22 12:25:18;;;;;;;40.00;18.97;;;1.50;1.00;;;;;;10436691;28;20224;-80
2023/01/22 12:31:06;;;;;;;38.67;17.93;;;1.60;1.00;;;;;;10477402;28;20223;-80
2023/01/22 12:36:29;;;;;;;26.20;14.60;;;1.60;1.00;;;;;;10477092;28;20282;-79
2023/01/22 12:42:23;;;;;;;29.03;14.77;;;1.60;1.00;;;;;;10441713;28;20197;-78
2023/01/22 12:47:44;;;;;;;57.97;24.63;;;1.50;1.00;;;;;;10467315;28;20234;-78
2023/01/22 12:53:26;;;;;;;44.90;20.57;;;1.60;1.00;;;;;;10485919;28;20184;-79
2023/01/22 12:58:55;;;;;;;71.50;26.83;;;1.60;1.00;;;;;;10484529;28;20266;-77
2023/01/22 13:04:28;;;;;;;59.33;26.90;;;1.50;1.00;;;;;;10484432;28;20575;-78
2023/01/22 13:10:04;;;;;;;33.53;18.83;;;1.60;1.00;;;;;;10485462;28;20294;-78
2023/01/22 13:15:36;;;;;;;36.27;19.90;;;1.50;1.00;;;;;;10481690;28;20210;-79
2023/01/22 13:21:08;;;;;;;45.70;24.70;;;1.60;1.00;;;;;;10444990;28;20215;-80
2023/01/22 13:26:33;;;;;;;49.00;26.60;;;1.50;1.00;;;;;;10443406;28;20412;-79
2023/01/22 13:32:00;;;;;;;50.87;25.57;;;1.50;1.00;;;;;;10463489;28;20200;-79
2023/01/22 13:37:25;;;;;;;56.63;27.50;;;1.50;1.00;;;;;;10484318;28;20203;-76
2023/01/22 13:42:47;;;;;;;31.67;14.37;;;1.50;1.00;;;;;;10484209;28;20191;-79
2023/01/22 13:48:14;;;;;;;36.43;18.33;;;1.50;1.00;;;;;;10482960;28;20564;-76
2023/01/22 13:53:42;;;;;;;27.53;14.47;;;1.50;1.00;;;;;;10480926;28;20274;-77
2023/01/22 13:59:16;;;;;;;27.77;14.20;;;1.40;1.00;;;;;;10481102;28;20248;-79
2023/01/22 14:04:37;;;;;;;104.00;32.83;;;1.40;1.00;;;;;;10471417;28;20234;-77
2023/01/22 14:10:18;;;;;;;125.13;37.23;;;1.40;1.00;;;;;;10483305;28;20192;-78
2023/01/22 14:15:40;;;;;;;81.00;30.10;;;1.40;1.00;;;;;;10482419;28;20215;-74
2023/01/22 14:21:02;;;;;;;109.47;40.80;;;1.40;1.00;;;;;;10480067;28;20214;-78
2023/01/22 14:26:23;;;;;;;84.07;34.67;;;1.40;1.00;;;;;;10476573;28;20229;-80
2023/01/22 14:31:44;;;;;;;65.90;26.33;;;1.50;1.00;;;;;;10480880;28;20213;-79
2023/01/22 14:37:05;;;;;;;58.20;25.90;;;1.50;1.00;;;;;;10446794;28;20274;-78
2023/01/22 14:42:27;;;;;;;48.80;24.47;;;1.50;1.00;;;;;;10480828;28;20200;-80
2023/01/22 14:47:52;;;;;;;45.70;22.03;;;1.40;1.00;;;;;;10480224;28;20236;-81
2023/01/22 14:53:13;;;;;;;39.40;20.23;;;1.40;1.80;;;;;;10479898;28;20200;-80
2023/01/22 14:58:35;;;;;;;43.40;20.73;;;1.40;6.30;;;;;;10481166;28;20238;-80
2023/01/22 15:03:56;;;;;;;35.03;17.83;;;1.40;12.70;;;;;;10479392;28;20241;-79
2023/01/22 15:09:17;;;;;;;43.70;22.63;;;1.40;9.20;;;;;;10477126;28;20429;-76
2023/01/22 15:14:38;;;;;;;54.10;25.67;;;1.30;11.00;;;;;;10479774;28;20417;-75
2023/01/22 15:20:00;;;;;;;55.83;26.47;;;1.30;23.00;;;;;;10480360;28;20215;-79
2023/01/22 15:25:21;;;;;;;40.67;21.00;;;1.30;20.40;;;;;;10460659;28;20273;-78
2023/01/22 15:30:45;;;;;;;34.20;16.67;;;1.30;22.80;;;;;;10479013;28;20286;-78
2023/01/22 15:36:07;;;;;;;31.50;16.30;;;1.30;22.30;;;;;;10479809;28;20208;-76
2023/01/22 15:41:30;;;;;;;53.67;25.30;;;1.20;14.70;;;;;;10478510;28;20198;-78
2023/01/22 15:46:51;;;;;;;59.27;25.90;;;1.20;23.80;;;;;;10479092;28;20222;-78
2023/01/22 15:52:12;;;;;;;50.63;24.17;;;1.20;19.60;;;;;;10477656;28;20190;-76
2023/01/22 15:57:33;;;;;;;61.47;26.80;;;1.30;25.20;;;;;;10477439;28;20239;-78
2023/01/22 16:02:54;;;;;;;68.30;29.33;;;1.20;10.70;;;;;;10477943;28;20183;-79
2023/01/22 16:08:15;;;;;;;73.10;31.07;;;1.10;14.90;;;;;;10478715;28;20211;-78
2023/01/22 16:13:36;;;;;;;60.17;28.40;;;1.10;20.20;;;;;;10475797;28;20218;-79
2023/01/22 16:19:00;;;;;;;45.73;23.73;;;1.20;26.40;;;;;;10443869;28;20225;-79
2023/01/22 16:24:21;;;;;;;47.67;25.17;;;1.20;25.10;;;;;;10476713;28;20211;-78
2023/01/22 16:29:42;;;;;;;38.57;21.17;;;1.20;22.80;;;;;;10462549;28;20237;-77
2023/01/22 16:35:03;;;;;;;27.80;16.73;;;1.20;23.90;;;;;;10478317;28;20416;-77
2023/01/22 16:40:25;;;;;;;35.13;18.37;;;1.20;18.30;;;;;;10476761;28;20205;-78
2023/01/22 16:45:46;;;;;;;36.33;19.13;;;1.20;14.80;;;;;;10477390;28;20215;-79
2023/01/22 16:51:18;;;;;;;26.47;15.93;;;1.10;5.90;;;;;;10477774;28;20191;-78
2023/01/22 16:56:41;;;;;;;34.17;17.43;;;1.10;9.60;;;;;;10474481;28;20223;-80
2023/01/22 17:02:06;;;;;;;33.43;20.17;;;1.00;13.80;;;;;;10476509;28;20510;-80
2023/01/22 17:07:27;;;;;;;40.97;22.10;;;1.10;18.90;;;;;;10476529;28;20294;-77
2023/01/22 17:12:53;;;;;;;38.73;23.40;;;1.10;20.00;;;;;;10475902;28;20489;-78
2023/01/22 17:18:15;;;;;;;37.97;20.40;;;1.00;23.20;;;;;;10477267;28;20202;-77
2023/01/22 17:23:36;;;;;;;34.37;19.47;;;1.10;11.40;;;;;;10469026;28;20252;-78
2023/01/22 17:28:57;;;;;;;27.57;17.47;;;1.10;16.60;;;;;;10478772;28;20289;-76
2023/01/22 17:34:19;;;;;;;34.50;18.67;;;1.10;11.10;;;;;;10483514;28;20203;-78
2023/01/22 17:39:41;;;;;;;49.10;22.60;;;1.10;11.70;;;;;;10482912;28;20285;-80
2023/01/22 17:45:03;;;;;;;27.40;16.13;;;1.10;13.10;;;;;;10481130;28;20555;-79
2023/01/22 17:50:24;;;;;;;33.30;17.37;;;1.10;12.50;;;;;;10497014;28;20212;-80
2023/01/22 17:55:45;;;;;;;38.23;21.13;;;1.00;11.30;;;;;;10481024;28;20312;-79
2023/01/22 18:01:08;;;;;;;41.03;22.43;;;1.00;13.50;;;;;;10483652;28;20270;-81
2023/01/22 18:06:30;;;;;;;29.97;17.00;;;1.00;17.50;;;;;;10483217;28;20221;-77
2023/01/22 18:11:51;;;;;;;29.50;17.03;;;1.00;3.70;;;;;;10480756;28;20200;-78
2023/01/22 18:17:12;;;;;;;32.27;18.83;;;1.00;8.20;;;;;;10482982;28;20192;-78
2023/01/22 18:22:33;;;;;;;30.70;17.10;;;0.90;4.90;;;;;;10482900;28;20191;-79
2023/01/22 18:27:54;;;;;;;35.00;18.93;;;0.90;6.20;;;;;;10470095;28;20224;-78
2023/01/22 18:33:17;;;;;;;29.77;15.93;;;0.90;1.00;;;;;;10440941;28;20195;-77
2023/01/22 18:38:39;;;;;;;29.47;16.83;;;0.90;1.00;;;;;;10473123;28;20198;-76
2023/01/22 18:44:01;;;;;;;28.97;14.63;;;0.90;1.00;;;;;;10478601;28;20221;-75
2023/01/22 18:49:22;;;;;;;35.13;18.10;;;0.90;1.00;;;;;;10466256;28;20211;-76
2023/01/22 18:54:43;;;;;;;28.97;15.80;;;0.80;1.00;;;;;;10480462;28;20239;-77
2023/01/22 19:00:08;;;;;;;26.93;14.90;;;0.80;1.00;;;;;;10481408;28;20198;-79
2023/01/22 19:05:29;;;;;;;28.17;14.70;;;0.80;1.00;;;;;;10479991;28;20257;-78
2023/01/22 19:10:50;;;;;;;28.70;14.97;;;0.80;1.00;;;;;;10479319;28;20249;-74
2023/01/22 19:16:14;;;;;;;33.80;17.47;;;0.80;1.00;;;;;;10480644;28;20190;-74
2023/01/22 19:21:39;;;;;;;16.10;10.13;;;0.80;1.00;;;;;;10466564;28;20256;-80
2023/01/22 19:27:00;;;;;;;20.13;10.03;;;0.70;1.00;;;;;;10462319;28;20264;-78
2023/01/22 19:32:26;;;;;;;17.53;10.50;;;0.70;1.00;;;;;;10480032;28;20196;-78
2023/01/22 19:37:47;;;;;;;22.10;12.43;;;0.70;1.00;;;;;;10479308;28;20241;-77
2023/01/22 19:43:08;;;;;;;22.67;11.87;;;0.60;1.00;;;;;;10477181;28;20413;-76
2023/01/22 19:48:30;;;;;;;22.57;12.67;;;0.70;1.00;;;;;;10479495;28;20550;-79
2023/01/22 19:53:52;;;;;;;20.37;11.77;;;0.70;1.00;;;;;;10436932;28;20214;-79
2023/01/22 19:59:18;;;;;;;16.37;9.63;;;0.70;1.00;;;;;;10475382;28;20275;-78
2023/01/22 20:04:39;;;;;;;14.63;8.77;;;0.70;1.00;;;;;;10478615;28;20242;-77
2023/01/22 20:10:00;;;;;;;14.50;8.77;;;0.60;1.00;;;;;;10476682;28;20206;-78
2023/01/22 20:15:21;;;;;;;16.07;8.70;;;0.60;1.00;;;;;;10472817;28;20539;-77
2023/01/22 20:20:50;;;;;;;27.30;11.27;;;0.60;1.00;;;;;;10478377;28;20190;-77
2023/01/22 20:26:12;;;;;;;28.30;14.30;;;0.60;1.00;;;;;;10467354;28;20231;-80
2023/01/22 20:31:33;;;;;;;32.97;18.10;;;0.60;1.00;;;;;;10437131;28;20191;-78
2023/01/22 20:36:55;;;;;;;46.57;22.37;;;0.70;1.00;;;;;;10438452;28;20226;-79
2023/01/22 20:42:15;;;;;;;31.00;17.30;;;0.70;1.00;;;;;;10475800;28;20208;-77
2023/01/22 20:47:37;;;;;;;25.73;12.33;;;0.70;1.00;;;;;;10478025;28;20244;-78
2023/01/22 20:52:57;;;;;;;28.13;13.27;;;0.60;1.00;;;;;;10477473;28;20183;-78
2023/01/22 20:58:18;;;;;;;18.03;9.77;;;0.60;1.00;;;;;;10472983;28;20270;-77
2023/01/22 21:03:40;;;;;;;27.67;13.73;;;0.60;1.00;;;;;;10482186;28;20203;-77
2023/01/22 21:09:03;;;;;;;22.57;10.87;;;0.60;1.00;;;;;;10485564;28;20223;-77
2023/01/22 21:14:24;;;;;;;21.70;10.80;;;0.70;1.00;;;;;;10483859;28;20283;-77
2023/01/22 21:19:45;;;;;;;22.87;11.17;;;0.70;1.00;;;;;;10485588;28;20201;-79
2023/01/22 21:25:07;;;;;;;18.77;9.97;;;0.70;1.00;;;;;;10485078;28;20420;-78
2023/01/22 21:30:29;;;;;;;18.50;9.37;;;0.80;1.00;;;;;;10482412;28;20271;-79
2023/01/22 21:35:50;;;;;;;12.87;8.27;;;0.70;1.00;;;;;;10456734;28;20211;-78
2023/01/22 21:41:17;;;;;;;16.83;9.77;;;0.70;99.90;;;;;;10480423;28;20265;-77
2023/01/22 21:46:43;;;;;;;15.33;8.97;;;0.70;1.00;;;;;;10482726;28;20253;-78
2023/01/22 21:52:05;;;;;;;11.13;6.97;;;0.70;99.90;;;;;;10483111;28;20265;-78
2023/01/22 21:57:28;;;;;;;11.87;7.03;;;0.70;1.00;;;;;;10482641;28;20241;-80
2023/01/22 22:02:50;;;;;;;13.87;7.83;;;0.60;1.00;;;;;;10442651;28;20230;-79
2023/01/22 22:08:11;;;;;;;12.20;7.93;;;0.60;1.00;;;;;;10442047;28;20242;-78
2023/01/22 22:13:33;;;;;;;16.00;7.70;;;0.70;1.00;;;;;;10458633;28;20557;-79
2023/01/22 22:18:55;;;;;;;15.37;9.20;;;0.70;1.00;;;;;;10461168;28;20306;-80
2023/01/22 22:24:17;;;;;;;18.57;9.87;;;0.70;1.00;;;;;;10483009;28;20186;-79
2023/01/22 22:29:38;;;;;;;13.90;8.53;;;0.70;1.00;;;;;;10482792;28;20192;-79
2023/01/22 22:34:59;;;;;;;12.73;7.67;;;0.70;1.00;;;;;;10446244;28;20200;-79
2023/01/22 22:40:20;;;;;;;11.93;6.80;;;0.70;99.90;;;;;;10470058;28;20288;-79
2023/01/22 22:45:41;;;;;;;12.77;7.67;;;0.60;99.90;;;;;;10481797;28;20241;-77
2023/01/22 22:51:15;;;;;;;14.30;7.90;;;0.60;1.00;;;;;;10479899;28;20488;-78
2023/01/22 22:56:36;;;;;;;18.53;9.03;;;0.50;1.00;;;;;;10480418;28;20239;-77
2023/01/22 23:01:58;;;;;;;19.07;9.63;;;0.60;1.00;;;;;;10446054;28;20274;-77
2023/01/22 23:07:19;;;;;;;16.63;9.53;;;0.60;1.00;;;;;;10424636;28;20384;-79
2023/01/22 23:12:40;;;;;;;14.67;7.53;;;0.60;1.00;;;;;;10465817;28;20201;-79
2023/01/22 23:18:01;;;;;;;14.23;7.97;;;0.60;1.00;;;;;;10475989;28;20202;-79
2023/01/22 23:23:22;;;;;;;12.30;7.30;;;0.60;99.90;;;;;;10478710;28;20202;-78
2023/01/22 23:28:44;;;;;;;38.23;13.03;;;0.60;1.00;;;;;;10480228;28;20238;-77
2023/01/22 23:34:07;;;;;;;21.60;10.63;;;0.60;1.00;;;;;;10473855;28;20562;-76
2023/01/22 23:39:29;;;;;;;9.87;6.27;;;0.60;1.00;;;;;;10479762;28;20272;-78
2023/01/22 23:44:50;;;;;;;10.67;7.33;;;0.60;99.90;;;;;;10492568;28;20217;-76
2023/01/22 23:50:11;;;;;;;27.70;13.77;;;0.60;1.00;;;;;;10476280;28;20414;-76
2023/01/22 23:55:32;;;;;;;42.10;12.73;;;0.60;1.00;;;;;;10478630;28;20230;-77
